Time;durP1;ratioP1;P1;durP2;ratioP2;P2;SDS_P1;SDS_P2;PMS_P1;PMS_P2;Temp;Humidity;BMP_temperature;BMP_pressure;BME280_temperature;BME280_humidity;BME280_pressure;Samples;Min_cycle;Max_cycle;Signal;HPM_P1;HPM_P2
2021/11/15 00:00:19;;;;;;;0.47;0.43;;;10.60;59.30;;;;;;4920108;29;20403;-79
2021/11/15 00:02:45;;;;;;;0.57;0.52;;;10.60;59.10;;;;;;4918773;29;20036;-79
2021/11/15 00:05:12;;;;;;;0.63;0.60;;;10.50;59.10;;;;;;4920969;29;20495;-79
2021/11/15 00:07:38;;;;;;;0.80;0.45;;;10.50;58.90;;;;;;4920078;29;20042;-79
2021/11/15 00:10:06;;;;;;;0.50;0.50;;;10.50;59.40;;;;;;4920910;29;20415;-81
2021/11/15 00:12:32;;;;;;;0.52;0.40;;;10.50;59.00;;;;;;4920647;29;20142;-80
2021/11/15 00:14:58;;;;;;;0.60;0.60;;;10.50;58.90;;;;;;4919384;29;20039;-80
2021/11/15 00:17:24;;;;;;;1.23;0.45;;;10.50;58.90;;;;;;4919449;29;20043;-79
2021/11/15 00:19:50;;;;;;;0.40;0.40;;;10.50;59.00;;;;;;4919947;29;20043;-80
2021/11/15 00:22:16;;;;;;;0.55;0.55;;;10.50;59.20;;;;;;4918653;29;20055;-79
2021/11/15 00:24:42;;;;;;;0.57;0.45;;;10.50;59.20;;;;;;4919908;29;20123;-79
2021/11/15 00:27:09;;;;;;;0.40;0.38;;;10.60;59.40;;;;;;4902637;29;20140;-79
2021/11/15 00:29:34;;;;;;;0.50;0.38;;;10.60;59.70;;;;;;4919047;29;20051;-79
2021/11/15 00:32:00;;;;;;;0.77;0.40;;;10.60;59.80;;;;;;4919707;29;20599;-78
2021/11/15 00:34:26;;;;;;;0.63;0.43;;;10.50;59.90;;;;;;4918071;29;20372;-79
2021/11/15 00:36:53;;;;;;;0.40;0.40;;;10.50;59.90;;;;;;4918484;29;20040;-79
2021/11/15 00:39:19;;;;;;;0.45;0.40;;;10.60;59.90;;;;;;4919203;29;20047;-79
2021/11/15 00:41:45;;;;;;;0.40;0.40;;;10.60;59.40;;;;;;4919638;29;20040;-79
2021/11/15 00:44:11;;;;;;;0.40;0.40;;;10.50;58.90;;;;;;4919674;29;20082;-79
2021/11/15 00:46:37;;;;;;;0.30;0.30;;;10.50;58.70;;;;;;4918709;29;20032;-79
2021/11/15 00:49:03;;;;;;;0.52;0.52;;;10.50;58.60;;;;;;4919102;29;20428;-80
2021/11/15 00:51:30;;;;;;;0.65;0.35;;;10.50;58.40;;;;;;4919581;29;20420;-80
2021/11/15 00:53:57;;;;;;;0.50;0.50;;;10.40;58.50;;;;;;4918100;29;20072;-80
2021/11/15 00:56:24;;;;;;;0.38;0.38;;;10.40;58.40;;;;;;4922681;29;20047;-80
2021/11/15 00:58:51;;;;;;;0.52;0.30;;;10.40;58.30;;;;;;4923432;29;20421;-80
2021/11/15 01:01:17;;;;;;;0.40;0.40;;;10.40;58.60;;;;;;4923238;29;20043;-80
2021/11/15 01:03:43;;;;;;;1.17;0.70;;;10.40;58.40;;;;;;4925058;29;20572;-79
2021/11/15 01:06:08;;;;;;;0.50;0.38;;;10.40;58.20;;;;;;4923770;29;20127;-79
2021/11/15 01:08:34;;;;;;;0.32;0.30;;;10.30;58.00;;;;;;4923347;29;20059;-80
2021/11/15 01:11:00;;;;;;;0.30;0.30;;;10.40;57.80;;;;;;4922349;29;20036;-78
2021/11/15 01:13:27;;;;;;;0.50;0.30;;;10.30;57.70;;;;;;4905412;29;20060;-79
2021/11/15 01:15:53;;;;;;;0.68;0.40;;;10.30;57.60;;;;;;4922490;29;20039;-79
2021/11/15 01:18:20;;;;;;;0.35;0.35;;;10.30;57.60;;;;;;4922339;29;20040;-80
2021/11/15 01:20:46;;;;;;;0.20;0.20;;;10.30;57.40;;;;;;4923482;29;20711;-80
2021/11/15 01:23:13;;;;;;;0.30;0.30;;;10.30;57.30;;;;;;4922538;29;20711;-78
2021/11/15 01:25:39;;;;;;;0.80;0.30;;;10.30;57.40;;;;;;4904988;29;20040;-78
2021/11/15 01:28:07;;;;;;;0.20;0.13;;;10.20;57.40;;;;;;4921124;29;20059;-80
2021/11/15 01:30:33;;;;;;;0.30;0.30;;;10.30;57.30;;;;;;4906558;29;20046;-78
2021/11/15 01:32:59;;;;;;;0.22;0.20;;;10.20;57.30;;;;;;4922819;29;20474;-78
2021/11/15 01:35:27;;;;;;;0.22;0.10;;;10.20;57.20;;;;;;4921520;29;20036;-79
2021/11/15 01:37:54;;;;;;;0.20;0.20;;;10.20;56.90;;;;;;4905569;29;20459;-78
2021/11/15 01:40:23;;;;;;;0.30;0.30;;;10.20;57.00;;;;;;4922134;29;20534;-80
2021/11/15 01:42:49;;;;;;;0.65;0.30;;;10.20;56.90;;;;;;4921920;29;20091;-78
2021/11/15 01:45:22;;;;;;;0.20;0.20;;;10.20;56.60;;;;;;4905947;29;20398;-79
2021/11/15 01:47:49;;;;;;;0.20;0.20;;;10.20;56.40;;;;;;4922870;29;20048;-79
2021/11/15 01:50:17;;;;;;;0.20;0.20;;;10.10;56.10;;;;;;4922208;29;20035;-79
2021/11/15 01:52:44;;;;;;;0.20;0.20;;;10.10;56.10;;;;;;4895794;29;20031;-77
2021/11/15 01:55:10;;;;;;;0.43;0.10;;;10.10;56.00;;;;;;4921270;29;20039;-79
2021/11/15 01:57:36;;;;;;;0.50;0.20;;;10.10;56.10;;;;;;4920838;29;20590;-78
2021/11/15 02:00:10;;;;;;;0.20;0.20;;;10.10;56.00;;;;;;4921128;29;20028;-78
2021/11/15 02:02:38;;;;;;;0.52;0.20;;;10.10;55.90;;;;;;4921626;29;20119;-77
2021/11/15 02:05:05;;;;;;;0.25;0.20;;;10.10;56.00;;;;;;4921602;29;20411;-77
2021/11/15 02:07:31;;;;;;;0.20;0.20;;;10.00;56.10;;;;;;4919867;29;20032;-78
2021/11/15 02:09:57;;;;;;;0.10;0.10;;;10.00;56.10;;;;;;4921660;29;20122;-79
2021/11/15 02:12:25;;;;;;;0.17;0.17;;;10.00;56.10;;;;;;4921366;29;20515;-79
2021/11/15 02:14:52;;;;;;;0.28;0.20;;;10.00;56.10;;;;;;4904596;29;20091;-80
2021/11/15 02:17:18;;;;;;;0.30;0.30;;;10.00;56.10;;;;;;4921387;29;20024;-77
2021/11/15 02:19:44;;;;;;;0.20;0.20;;;10.00;56.20;;;;;;4922169;29;20087;-78
2021/11/15 02:22:10;;;;;;;0.15;0.15;;;10.00;56.10;;;;;;4920591;29;20457;-77
2021/11/15 02:24:36;;;;;;;0.30;0.20;;;10.00;56.10;;;;;;4921495;29;21046;-79
2021/11/15 02:27:03;;;;;;;0.25;0.25;;;10.00;56.00;;;;;;4920940;29;20123;-78
2021/11/15 02:29:29;;;;;;;0.20;0.20;;;9.90;56.10;;;;;;4904554;29;20073;-78
2021/11/15 02:31:55;;;;;;;0.25;0.25;;;9.90;56.10;;;;;;4922145;29;20488;-77
2021/11/15 02:34:21;;;;;;;0.30;0.30;;;9.90;56.10;;;;;;4903513;29;21114;-79
2021/11/15 02:36:47;;;;;;;0.45;0.20;;;9.90;56.00;;;;;;4920896;29;20118;-79
2021/11/15 02:39:13;;;;;;;0.35;0.20;;;9.90;56.10;;;;;;4920988;29;20064;-78
2021/11/15 02:41:39;;;;;;;0.28;0.28;;;9.80;56.30;;;;;;4921652;29;20087;-78
2021/11/15 02:44:07;;;;;;;0.22;0.22;;;9.80;56.30;;;;;;4903255;29;20024;-79
2021/11/15 02:46:34;;;;;;;0.20;0.15;;;9.80;56.10;;;;;;4903386;29;20055;-79
2021/11/15 02:49:02;;;;;;;0.25;0.20;;;9.80;56.20;;;;;;4921093;29;20031;-78
2021/11/15 02:51:28;;;;;;;0.63;0.38;;;9.80;56.20;;;;;;4921686;29;20091;-79
2021/11/15 02:53:54;;;;;;;0.90;0.10;;;9.80;56.30;;;;;;4920782;29;20039;-79
2021/11/15 02:56:20;;;;;;;0.15;0.15;;;9.80;56.20;;;;;;4920630;29;20036;-79
2021/11/15 02:58:46;;;;;;;0.20;0.20;;;9.80;56.70;;;;;;4920222;29;20456;-79
2021/11/15 03:01:15;;;;;;;0.45;0.20;;;9.80;56.10;;;;;;4920087;29;20130;-78
2021/11/15 03:03:41;;;;;;;0.20;0.10;;;9.80;56.10;;;;;;4921258;29;20408;-80
2021/11/15 03:06:08;;;;;;;0.22;0.22;;;9.80;56.00;;;;;;4903855;29;20035;-80
2021/11/15 03:08:34;;;;;;;0.30;0.20;;;9.80;56.00;;;;;;4903277;29;20090;-79
2021/11/15 03:11:04;;;;;;;0.40;0.32;;;9.80;56.10;;;;;;4920681;29;20448;-78
2021/11/15 03:13:34;;;;;;;1.45;0.20;;;9.70;56.00;;;;;;4919435;29;20039;-78
2021/11/15 03:16:01;;;;;;;0.52;0.38;;;9.70;56.00;;;;;;4922086;29;20091;-78
2021/11/15 03:18:33;;;;;;;0.40;0.25;;;9.70;56.20;;;;;;4903502;29;20521;-79
2021/11/15 03:21:02;;;;;;;0.40;0.30;;;9.70;56.20;;;;;;4921028;29;20100;-78
2021/11/15 03:23:31;;;;;;;1.15;0.20;;;9.70;56.10;;;;;;4919594;29;20130;-78
2021/11/15 03:25:59;;;;;;;0.17;0.17;;;9.70;56.10;;;;;;4920289;29;20046;-78
2021/11/15 03:28:31;;;;;;;0.20;0.20;;;9.70;56.20;;;;;;4920029;29;20510;-81
2021/11/15 03:31:08;;;;;;;0.57;0.50;;;9.70;56.40;;;;;;4921887;29;20031;-80
2021/11/15 03:33:36;;;;;;;0.30;0.13;;;9.70;56.20;;;;;;4920707;29;20098;-80
2021/11/15 03:36:02;;;;;;;1.08;0.20;;;9.70;56.10;;;;;;4919604;29;20088;-81
2021/11/15 03:38:28;;;;;;;0.17;0.17;;;9.70;56.10;;;;;;4919338;29;20032;-81
2021/11/15 03:40:56;;;;;;;0.52;0.30;;;9.70;56.00;;;;;;4921189;29;20447;-81
2021/11/15 03:43:23;;;;;;;0.20;0.20;;;9.70;55.90;;;;;;4921182;29;20439;-81
2021/11/15 03:45:49;;;;;;;0.20;0.20;;;9.60;55.80;;;;;;4920964;29;20056;-80
2021/11/15 03:48:15;;;;;;;0.38;0.38;;;9.70;55.80;;;;;;4903537;29;20039;-80
2021/11/15 03:50:42;;;;;;;0.20;0.20;;;9.70;55.80;;;;;;4919878;29;20444;-82
2021/11/15 03:53:11;;;;;;;0.25;0.25;;;9.70;55.90;;;;;;4919312;29;20039;-81
2021/11/15 03:55:37;;;;;;;0.60;0.20;;;9.70;55.90;;;;;;4920307;29;20481;-81
2021/11/15 03:58:04;;;;;;;0.30;0.30;;;9.60;55.90;;;;;;4902486;29;20040;-82
2021/11/15 04:00:33;;;;;;;0.88;0.43;;;9.60;56.00;;;;;;4919835;29;20036;-80
2021/11/15 04:03:04;;;;;;;0.40;0.40;;;9.60;56.00;;;;;;4922209;29;20086;-81
2021/11/15 04:05:39;;;;;;;0.32;0.30;;;9.60;56.20;;;;;;4923333;29;20274;-80
2021/11/15 04:08:06;;;;;;;0.27;0.27;;;9.60;56.00;;;;;;4920841;29;20102;-82
2021/11/15 04:10:41;;;;;;;0.20;0.10;;;9.60;56.10;;;;;;4919009;29;20431;-80
2021/11/15 04:13:13;;;;;;;0.43;0.22;;;9.60;56.20;;;;;;4919160;29;20046;-79
2021/11/15 04:15:39;;;;;;;1.10;0.35;;;9.60;56.10;;;;;;4920620;29;20088;-79
2021/11/15 04:18:08;;;;;;;0.15;0.15;;;9.60;56.20;;;;;;4919019;29;20032;-77
2021/11/15 04:20:35;;;;;;;0.30;0.30;;;9.60;56.40;;;;;;4919938;29;20035;-80
2021/11/15 04:23:01;;;;;;;0.30;0.30;;;9.60;56.20;;;;;;4920037;29;20040;-79
2021/11/15 04:25:27;;;;;;;0.85;0.28;;;9.60;56.10;;;;;;4919585;29;20039;-79
2021/11/15 04:27:53;;;;;;;0.55;0.30;;;9.60;56.00;;;;;;4918921;29;20051;-81
2021/11/15 04:30:19;;;;;;;0.22;0.20;;;9.60;56.00;;;;;;4919007;29;20039;-80
2021/11/15 04:32:45;;;;;;;0.73;0.20;;;9.50;56.00;;;;;;4902401;29;20040;-82
2021/11/15 04:35:17;;;;;;;0.25;0.25;;;9.50;55.90;;;;;;4918655;29;20074;-80
2021/11/15 04:37:43;;;;;;;0.82;0.20;;;9.50;55.90;;;;;;4919365;29;20072;-82
2021/11/15 04:40:10;;;;;;;0.43;0.32;;;9.50;55.90;;;;;;4920660;29;20114;-78
2021/11/15 04:42:36;;;;;;;0.55;0.30;;;9.50;55.90;;;;;;4920450;29;20039;-82
2021/11/15 04:45:03;;;;;;;1.35;0.30;;;9.40;55.70;;;;;;4918834;29;20421;-79
2021/11/15 04:47:30;;;;;;;0.32;0.32;;;9.50;55.80;;;;;;4918054;29;20063;-78
2021/11/15 04:49:56;;;;;;;0.50;0.45;;;9.50;55.80;;;;;;4919425;29;20190;-79
2021/11/15 04:52:22;;;;;;;0.43;0.22;;;9.50;55.70;;;;;;4920416;29;20551;-79
2021/11/15 04:54:47;;;;;;;0.35;0.35;;;9.50;55.70;;;;;;4902002;29;20042;-79
2021/11/15 04:57:15;;;;;;;0.25;0.25;;;9.40;55.80;;;;;;4918488;29;20670;-78
2021/11/15 04:59:41;;;;;;;0.20;0.20;;;9.40;55.90;;;;;;4919516;29;20032;-79
2021/11/15 05:02:07;;;;;;;2.25;0.40;;;9.40;56.20;;;;;;4920201;29;20032;-79
2021/11/15 05:04:34;;;;;;;0.57;0.30;;;9.40;55.60;;;;;;4919747;29;20036;-79
2021/11/15 05:07:00;;;;;;;0.77;0.15;;;9.40;55.50;;;;;;4920290;29;20473;-78
2021/11/15 05:09:26;;;;;;;0.52;0.25;;;9.40;55.50;;;;;;4917750;29;20095;-78
2021/11/15 05:11:51;;;;;;;0.65;0.20;;;9.40;55.50;;;;;;4918438;29;20424;-78
2021/11/15 05:14:17;;;;;;;0.20;0.20;;;9.40;55.40;;;;;;4920744;29;20103;-78
2021/11/15 05:16:43;;;;;;;0.38;0.30;;;9.40;55.40;;;;;;4920405;29;20174;-79
2021/11/15 05:19:09;;;;;;;0.38;0.30;;;9.40;55.30;;;;;;4918347;29;20523;-79
2021/11/15 05:21:35;;;;;;;1.23;0.40;;;9.40;55.30;;;;;;4919194;29;20106;-79
2021/11/15 05:24:01;;;;;;;0.50;0.30;;;9.40;55.10;;;;;;4901111;29;20039;-79
2021/11/15 05:26:28;;;;;;;0.70;0.30;;;9.40;55.20;;;;;;4919442;29;20042;-78
2021/11/15 05:28:57;;;;;;;0.40;0.30;;;9.40;55.20;;;;;;4917662;29;20035;-80
2021/11/15 05:31:24;;;;;;;0.20;0.20;;;9.40;55.10;;;;;;4918238;29;20059;-79
2021/11/15 05:33:50;;;;;;;0.30;0.20;;;9.40;55.00;;;;;;4919368;29;20052;-79
2021/11/15 05:36:16;;;;;;;2.05;0.20;;;9.40;55.10;;;;;;4920289;29;20068;-79
2021/11/15 05:38:42;;;;;;;1.05;0.40;;;9.40;55.20;;;;;;4919785;29;20067;-80
2021/11/15 05:41:08;;;;;;;0.30;0.30;;;9.40;55.00;;;;;;4919507;29;20035;-79
2021/11/15 05:43:34;;;;;;;2.35;0.43;;;9.40;54.90;;;;;;4921523;29;20126;-78
2021/11/15 05:46:00;;;;;;;0.82;0.22;;;9.40;54.80;;;;;;4922235;29;20035;-80
2021/11/15 05:48:26;;;;;;;0.30;0.30;;;9.40;54.70;;;;;;4921822;29;20036;-78
2021/11/15 05:50:52;;;;;;;0.77;0.38;;;9.40;54.70;;;;;;4921749;29;20043;-80
2021/11/15 05:53:18;;;;;;;1.15;0.20;;;9.40;54.60;;;;;;4921819;29;20496;-78
2021/11/15 05:55:44;;;;;;;0.63;0.40;;;9.40;54.70;;;;;;4922179;29;20040;-78
2021/11/15 05:58:10;;;;;;;0.35;0.32;;;9.40;54.70;;;;;;4920202;29;20051;-77
2021/11/15 06:00:37;;;;;;;0.60;0.30;;;9.40;54.60;;;;;;4921912;29;20036;-78
2021/11/15 06:03:03;;;;;;;0.60;0.40;;;9.40;54.50;;;;;;4921347;29;20028;-78
2021/11/15 06:05:29;;;;;;;0.68;0.28;;;9.40;54.60;;;;;;4905853;29;20040;-79
2021/11/15 06:07:56;;;;;;;0.50;0.50;;;9.30;54.60;;;;;;4922890;29;20083;-79
2021/11/15 06:10:22;;;;;;;1.92;0.50;;;9.40;54.60;;;;;;4921553;29;20123;-81
2021/11/15 06:12:51;;;;;;;1.27;0.60;;;9.30;54.70;;;;;;4922005;29;20038;-81
2021/11/15 06:15:20;;;;;;;0.47;0.40;;;9.30;54.70;;;;;;4930293;29;20032;-82
2021/11/15 06:17:46;;;;;;;0.70;0.65;;;9.30;54.80;;;;;;4934094;29;20225;-82
2021/11/15 06:20:14;;;;;;;0.50;0.30;;;9.30;54.70;;;;;;4933749;29;20027;-83
2021/11/15 06:22:40;;;;;;;2.05;0.25;;;9.30;54.80;;;;;;4937365;29;20087;-82
2021/11/15 06:25:07;;;;;;;1.20;0.52;;;9.30;54.80;;;;;;4903731;29;20079;-82
2021/11/15 06:27:34;;;;;;;2.22;0.75;;;9.30;54.90;;;;;;4931394;29;20036;-81
2021/11/15 06:30:00;;;;;;;0.52;0.40;;;9.30;55.00;;;;;;4931897;29;20364;-81
2021/11/15 06:32:26;;;;;;;2.03;0.60;;;9.30;55.00;;;;;;4937493;29;20159;-81
2021/11/15 06:34:52;;;;;;;0.60;0.60;;;9.30;55.00;;;;;;4907334;29;20152;-84
2021/11/15 06:37:18;;;;;;;2.03;0.82;;;9.30;55.10;;;;;;4922369;29;20027;-81
2021/11/15 06:39:43;;;;;;;1.45;0.73;;;9.30;55.10;;;;;;4921683;29;20095;-81
2021/11/15 06:42:09;;;;;;;0.80;0.70;;;9.30;55.00;;;;;;4922074;29;20035;-81
2021/11/15 06:44:35;;;;;;;4.70;0.70;;;9.40;55.30;;;;;;4921890;29;20036;-80
2021/11/15 06:47:02;;;;;;;1.38;0.73;;;9.30;55.10;;;;;;4921788;29;20063;-82
2021/11/15 06:49:28;;;;;;;1.25;0.65;;;9.30;55.20;;;;;;4920125;29;20061;-81
2021/11/15 06:51:54;;;;;;;1.45;0.73;;;9.30;55.40;;;;;;4920760;29;20047;-80
2021/11/15 06:54:20;;;;;;;2.33;0.88;;;9.30;55.40;;;;;;4920275;29;20036;-80
2021/11/15 06:56:46;;;;;;;2.60;1.08;;;9.30;55.40;;;;;;4920487;29;20039;-83
2021/11/15 06:59:12;;;;;;;1.80;0.77;;;9.30;55.40;;;;;;4918785;29;20099;-80
2021/11/15 07:01:38;;;;;;;2.00;0.75;;;9.40;55.50;;;;;;4920739;29;20032;-82
2021/11/15 07:04:08;;;;;;;4.15;0.90;;;9.30;55.50;;;;;;4920898;29;20059;-82
2021/11/15 07:06:35;;;;;;;1.98;0.80;;;9.30;55.50;;;;;;4921043;29;20042;-82
2021/11/15 07:09:26;;;;;;;2.75;1.38;;;9.30;55.70;;;;;;4923489;29;20510;-87
2021/11/15 07:11:52;;;;;;;4.25;1.00;;;9.30;56.40;;;;;;4922095;29;20039;-83
2021/11/15 07:14:18;;;;;;;1.50;0.88;;;9.30;56.70;;;;;;4922744;29;20051;-89
2021/11/15 07:16:44;;;;;;;0.90;0.70;;;9.40;56.50;;;;;;4920725;29;20526;-89
2021/11/15 07:19:10;;;;;;;2.35;0.90;;;9.40;56.20;;;;;;4921188;29;20122;-84
2021/11/15 07:21:36;;;;;;;4.38;1.63;;;9.40;56.00;;;;;;4921618;29;20112;-88
2021/11/15 07:24:02;;;;;;;1.10;0.80;;;9.40;55.90;;;;;;4920798;29;20035;-89
2021/11/15 07:26:28;;;;;;;1.13;0.93;;;9.40;55.80;;;;;;4892879;29;20488;-88
2021/11/15 07:28:55;;;;;;;1.30;0.85;;;9.40;55.60;;;;;;4921524;29;20043;-87
2021/11/15 07:31:21;;;;;;;1.55;0.70;;;9.40;55.50;;;;;;4921528;29;20036;-89
2021/11/15 07:33:48;;;;;;;2.30;0.60;;;9.40;55.50;;;;;;4921848;29;20491;-89
2021/11/15 07:36:14;;;;;;;2.22;0.80;;;9.40;55.30;;;;;;4906254;29;20066;-86
2021/11/15 07:38:41;;;;;;;0.85;0.65;;;9.40;55.30;;;;;;4923989;29;20555;-87
2021/11/15 07:41:08;;;;;;;0.90;0.68;;;9.40;55.20;;;;;;4925264;29;20032;-89
2021/11/15 07:43:34;;;;;;;2.50;0.90;;;9.50;55.10;;;;;;4922942;29;20036;-84
2021/11/15 07:46:00;;;;;;;3.15;0.60;;;9.50;55.20;;;;;;4921539;29;20042;-88
2021/11/15 07:48:28;;;;;;;0.57;0.57;;;9.50;55.10;;;;;;4902649;29;20529;-86
2021/11/15 07:50:55;;;;;;;3.08;0.80;;;9.50;55.20;;;;;;4920061;29;20464;-84
2021/11/15 07:53:21;;;;;;;1.70;0.80;;;9.50;55.30;;;;;;4921789;29;20135;-88
2021/11/15 07:55:47;;;;;;;2.22;0.70;;;9.50;55.40;;;;;;4919550;29;20487;-87
2021/11/15 07:58:15;;;;;;;1.50;0.60;;;9.40;55.40;;;;;;4902078;29;20127;-87
2021/11/15 08:00:41;;;;;;;2.40;0.70;;;9.40;55.40;;;;;;4903800;29;20043;-88
2021/11/15 08:03:07;;;;;;;2.83;0.82;;;9.40;55.50;;;;;;4919924;29;20118;-87
2021/11/15 08:05:34;;;;;;;1.73;0.90;;;9.50;55.40;;;;;;4919829;29;20118;-87
2021/11/15 08:08:00;;;;;;;1.00;0.70;;;9.40;55.60;;;;;;4919623;29;20051;-87
2021/11/15 08:10:27;;;;;;;2.92;0.63;;;9.40;55.60;;;;;;4920158;29;20048;-86
2021/11/15 08:12:56;;;;;;;1.20;0.75;;;9.50;55.60;;;;;;4919693;29;20038;-83
2021/11/15 08:15:24;;;;;;;1.65;0.80;;;9.40;55.50;;;;;;4921032;29;20081;-84
2021/11/15 08:17:53;;;;;;;1.98;0.75;;;9.40;55.30;;;;;;4920025;29;20950;-85
2021/11/15 08:20:31;;;;;;;1.02;0.57;;;9.50;55.60;;;;;;4919798;29;20036;-88
2021/11/15 08:23:07;;;;;;;1.95;0.50;;;9.40;55.30;;;;;;4918815;29;20032;-88
2021/11/15 08:25:49;;;;;;;0.75;0.65;;;9.40;55.20;;;;;;4919019;29;20076;-88
2021/11/15 08:28:15;;;;;;;1.88;0.82;;;9.40;55.20;;;;;;4919332;29;20039;-87
2021/11/15 08:30:41;;;;;;;1.42;0.80;;;9.50;55.50;;;;;;4919837;29;20051;-88
2021/11/15 08:33:08;;;;;;;2.08;0.73;;;9.50;55.50;;;;;;4919822;29;20041;-89
2021/11/15 08:35:35;;;;;;;0.65;0.60;;;9.50;55.30;;;;;;4921042;29;20134;-88
2021/11/15 08:38:01;;;;;;;0.68;0.55;;;9.40;55.30;;;;;;4922441;29;20460;-88
2021/11/15 08:40:26;;;;;;;1.83;0.60;;;9.40;55.20;;;;;;4927058;29;20043;-86
2021/11/15 08:42:53;;;;;;;0.38;0.38;;;9.40;55.00;;;;;;4919284;29;20032;-84
2021/11/15 08:45:20;;;;;;;0.88;0.47;;;9.40;55.00;;;;;;4919165;29;20032;-85
2021/11/15 08:47:46;;;;;;;3.97;0.40;;;9.40;54.80;;;;;;4920120;29;20415;-84
2021/11/15 08:50:12;;;;;;;1.48;0.45;;;9.40;54.50;;;;;;4903529;29;20043;-84
2021/11/15 08:52:38;;;;;;;2.05;0.40;;;9.40;54.30;;;;;;4905125;29;20035;-84
2021/11/15 08:55:05;;;;;;;2.40;0.50;;;9.40;54.20;;;;;;4918538;29;20043;-88
2021/11/15 08:57:31;;;;;;;2.25;0.50;;;9.40;54.00;;;;;;4919855;29;20040;-83
2021/11/15 08:59:58;;;;;;;0.30;0.30;;;9.40;54.00;;;;;;4919364;29;20148;-85
2021/11/15 09:02:24;;;;;;;1.20;0.45;;;9.40;54.40;;;;;;4918179;29;20024;-86
2021/11/15 09:04:51;;;;;;;0.77;0.30;;;9.40;53.90;;;;;;4919806;29;20286;-83
2021/11/15 09:07:17;;;;;;;2.22;0.57;;;9.40;53.90;;;;;;4902275;29;20142;-87
2021/11/15 09:09:43;;;;;;;1.58;0.40;;;9.40;54.00;;;;;;4918595;29;20067;-86
2021/11/15 09:12:09;;;;;;;0.73;0.40;;;9.40;54.20;;;;;;4919884;29;20032;-86
2021/11/15 09:14:37;;;;;;;2.15;0.60;;;9.40;54.10;;;;;;4918891;29;20040;-86
2021/11/15 09:17:04;;;;;;;0.60;0.60;;;9.40;54.10;;;;;;4921640;29;20036;-88
2021/11/15 09:19:30;;;;;;;1.23;0.60;;;9.40;54.30;;;;;;4923245;29;20048;-84
2021/11/15 09:21:57;;;;;;;1.30;0.82;;;9.40;54.40;;;;;;4923034;29;20032;-88
2021/11/15 09:24:24;;;;;;;4.38;2.33;;;9.40;54.40;;;;;;4906271;29;21144;-87
2021/11/15 09:26:50;;;;;;;3.47;1.90;;;9.40;54.30;;;;;;4924417;29;20036;-87
2021/11/15 09:29:18;;;;;;;3.13;1.50;;;9.40;54.10;;;;;;4906183;29;20039;-89
2021/11/15 09:31:45;;;;;;;1.95;1.38;;;9.40;54.20;;;;;;4908788;29;20032;-88
2021/11/15 09:34:11;;;;;;;2.22;1.27;;;9.40;54.20;;;;;;4922854;29;21520;-83
2021/11/15 09:36:38;;;;;;;1.30;0.93;;;9.40;54.00;;;;;;4924307;29;20040;-88
2021/11/15 09:39:06;;;;;;;0.80;0.80;;;9.50;54.10;;;;;;4925917;29;20036;-86
2021/11/15 09:41:33;;;;;;;2.20;1.40;;;9.40;54.00;;;;;;4904912;29;20499;-86
2021/11/15 09:43:59;;;;;;;3.67;0.90;;;9.40;53.90;;;;;;4923799;29;20039;-87
2021/11/15 09:46:28;;;;;;;1.85;0.70;;;9.40;53.80;;;;;;4922134;29;20042;-89
2021/11/15 09:49:04;;;;;;;2.60;0.60;;;9.40;53.90;;;;;;4922452;29;20032;-87
2021/11/15 09:53:08;;;;;;;0.50;0.50;;;9.40;54.00;;;;;;4910077;29;20431;-90
2021/11/15 09:55:41;;;;;;;2.40;0.60;;;9.40;53.90;;;;;;4841030;29;20046;-88
2021/11/15 09:58:10;;;;;;;2.75;0.47;;;9.50;54.00;;;;;;4829244;29;20620;-88
2021/11/15 10:04:53;;;;;;;2.78;0.68;;;9.50;54.10;;;;;;4903464;29;20044;-86
2021/11/15 10:08:13;;;;;;;2.90;0.60;;;9.40;54.40;;;;;;4831210;29;20042;-87
2021/11/15 10:18:49;;;;;;;;;;;;;;;;;;;;;
2021/11/15 10:22:26;;;;;;;;;;;;;;;;;;;;;
2021/11/15 10:24:58;;;;;;;1.85;0.50;;;9.40;54.40;;;;;;4800473;29;20046;-86
2021/11/15 10:27:30;;;;;;;1.02;0.60;;;9.40;54.60;;;;;;4798488;29;20055;-86
2021/11/15 10:31:36;;;;;;;1.27;0.55;;;9.40;54.30;;;;;;4773012;29;20043;-85
2021/11/15 10:34:57;;;;;;;1.50;0.68;;;9.40;54.50;;;;;;4759053;30;20130;-85
2021/11/15 10:38:18;;;;;;;1.48;0.57;;;9.40;54.40;;;;;;4776243;29;20058;-88
2021/11/15 10:40:50;;;;;;;1.92;0.55;;;9.30;54.40;;;;;;4713259;30;20037;-84
2021/11/15 10:47:42;;;;;;;1.10;0.70;;;9.40;54.50;;;;;;4733479;30;20036;-85
2021/11/15 10:55:05;;;;;;;0.70;0.50;;;9.40;54.20;;;;;;4740280;30;20036;-86
2021/11/15 11:05:56;;;;;;;0.98;0.82;;;9.30;53.70;;;;;;4702866;30;20126;-83
2021/11/15 11:28:29;;;;;;;1.77;0.75;;;9.40;54.40;;;;;;4796406;29;20061;-86
2021/11/15 11:31:14;;;;;;;1.17;0.50;;;9.40;53.40;;;;;;4821000;29;20565;-85
2021/11/15 11:41:11;;;;;;;2.53;1.00;;;9.40;54.30;;;;;;4762877;30;20050;-85
2021/11/15 11:44:19;;;;;;;1.25;0.70;;;9.40;53.80;;;;;;4832780;29;20114;-86
2021/11/15 11:47:24;;;;;;;1.98;0.60;;;9.40;53.80;;;;;;4834436;29;20044;-88
2021/11/15 11:50:19;;;;;;;1.42;0.70;;;9.30;53.80;;;;;;4860629;29;20092;-84
2021/11/15 11:56:41;;;;;;;0.98;0.75;;;9.30;53.50;;;;;;4862522;29;20044;-80
2021/11/15 11:59:28;;;;;;;1.35;0.65;;;9.30;54.00;;;;;;4878550;29;20057;-85
2021/11/15 12:02:22;;;;;;;1.65;0.70;;;9.30;54.20;;;;;;4882082;29;20025;-83
2021/11/15 12:05:03;;;;;;;2.95;0.60;;;9.30;54.10;;;;;;4868042;29;20040;-85
2021/11/15 12:07:32;;;;;;;0.82;0.80;;;9.30;54.10;;;;;;4882743;29;20036;-84
2021/11/15 12:10:00;;;;;;;2.08;0.75;;;9.20;54.40;;;;;;4915665;29;20107;-86
2021/11/15 12:12:26;;;;;;;2.42;0.77;;;9.20;54.40;;;;;;4919489;29;20083;-84
2021/11/15 12:14:53;;;;;;;3.88;0.73;;;9.30;54.40;;;;;;4919630;29;20071;-86
2021/11/15 12:17:23;;;;;;;2.70;0.93;;;9.30;54.60;;;;;;4920546;29;20032;-86
2021/11/15 12:19:49;;;;;;;1.10;0.70;;;9.30;54.50;;;;;;4903283;29;20486;-87
2021/11/15 12:22:25;;;;;;;1.45;0.60;;;9.20;54.00;;;;;;4918640;29;20032;-87
2021/11/15 12:25:21;;;;;;;1.27;0.50;;;9.30;56.00;;;;;;4920511;29;21502;-82
2021/11/15 12:28:25;;;;;;;1.83;0.70;;;9.30;55.50;;;;;;4903326;29;20078;-86
2021/11/15 12:30:51;;;;;;;1.33;0.50;;;9.30;54.40;;;;;;4919692;29;20075;-81
2021/11/15 12:33:17;;;;;;;3.35;0.85;;;9.30;54.10;;;;;;4919699;29;20459;-88
2021/11/15 12:35:58;;;;;;;2.28;0.95;;;9.30;53.90;;;;;;4920791;29;20035;-84
2021/11/15 12:38:39;;;;;;;3.75;0.80;;;9.30;54.10;;;;;;4920014;29;20047;-86
2021/11/15 12:41:17;;;;;;;0.45;0.45;;;9.30;53.60;;;;;;4925338;29;20557;-86
2021/11/15 12:46:44;;;;;;;1.15;0.70;;;9.30;53.30;;;;;;4930119;29;20036;-86
2021/11/15 12:49:21;;;;;;;0.95;0.70;;;9.30;53.10;;;;;;4927971;29;20094;-86
2021/11/15 12:52:13;;;;;;;1.88;0.68;;;9.20;53.30;;;;;;4917722;29;20040;-86
2021/11/15 12:54:49;;;;;;;0.82;0.68;;;9.20;53.10;;;;;;4919803;29;20048;-84
2021/11/15 12:57:18;;;;;;;1.17;0.90;;;9.20;53.30;;;;;;4901668;29;21603;-84
2021/11/15 12:59:48;;;;;;;2.92;0.80;;;9.10;53.50;;;;;;4919834;29;20036;-87
2021/11/15 13:02:15;;;;;;;2.22;0.70;;;9.10;53.50;;;;;;4919142;29;20036;-85
2021/11/15 13:04:41;;;;;;;1.60;0.88;;;9.10;53.70;;;;;;4916580;29;20046;-86
2021/11/15 13:07:11;;;;;;;2.60;1.00;;;9.10;53.90;;;;;;4900373;29;22221;-82
2021/11/15 13:09:38;;;;;;;2.53;0.80;;;9.10;53.70;;;;;;4919039;29;20063;-89
2021/11/15 13:12:04;;;;;;;0.95;0.90;;;9.10;53.90;;;;;;4915905;29;20043;-87
2021/11/15 13:14:30;;;;;;;2.88;1.08;;;9.10;54.00;;;;;;4917439;29;20525;-86
2021/11/15 13:16:58;;;;;;;1.33;0.95;;;9.20;54.20;;;;;;4917969;29;20547;-87
2021/11/15 13:19:25;;;;;;;1.10;0.50;;;9.10;54.40;;;;;;4918701;29;20031;-88
2021/11/15 13:21:51;;;;;;;0.77;0.77;;;9.10;54.60;;;;;;4918677;29;20384;-86
2021/11/15 13:24:18;;;;;;;1.70;1.15;;;9.20;55.00;;;;;;4898879;29;20582;-87
2021/11/15 13:26:48;;;;;;;2.15;0.98;;;9.20;55.10;;;;;;4902479;29;20582;-87
2021/11/15 13:29:18;;;;;;;3.72;1.20;;;9.20;55.20;;;;;;4916995;29;20038;-86
2021/11/15 13:31:58;;;;;;;2.03;1.23;;;9.10;55.20;;;;;;4918824;29;20040;-87
2021/11/15 13:34:24;;;;;;;1.33;1.00;;;9.20;55.20;;;;;;4919243;29;20119;-87
2021/11/15 13:36:50;;;;;;;6.13;1.10;;;9.20;55.90;;;;;;4919193;29;20028;-87
2021/11/15 13:39:16;;;;;;;2.80;1.30;;;9.20;55.30;;;;;;4920166;29;20038;-87
2021/11/15 13:41:42;;;;;;;3.67;1.13;;;9.20;55.40;;;;;;4919697;29;20400;-87
2021/11/15 13:44:08;;;;;;;3.45;1.20;;;9.20;55.50;;;;;;4917923;29;20474;-86
2021/11/15 13:46:35;;;;;;;4.20;1.60;;;9.20;55.60;;;;;;4890991;29;20036;-88
2021/11/15 13:49:05;;;;;;;2.53;1.10;;;9.20;55.60;;;;;;4918019;29;20048;-87
2021/11/15 13:51:31;;;;;;;2.28;1.50;;;9.20;55.70;;;;;;4920085;29;20074;-84
2021/11/15 13:53:57;;;;;;;2.60;1.15;;;9.20;55.70;;;;;;4919116;29;20082;-88
2021/11/15 13:56:23;;;;;;;1.50;0.95;;;9.20;55.60;;;;;;4922457;29;20035;-89
2021/11/15 13:58:49;;;;;;;1.95;1.25;;;9.20;55.50;;;;;;4901420;29;20044;-88
2021/11/15 14:01:15;;;;;;;1.88;1.30;;;9.20;55.50;;;;;;4918439;29;20083;-90
2021/11/15 14:03:41;;;;;;;1.15;1.00;;;9.10;55.60;;;;;;4921024;29;20040;-87
2021/11/15 14:06:09;;;;;;;2.25;1.17;;;9.10;55.80;;;;;;4922987;29;21573;-85
2021/11/15 14:08:35;;;;;;;1.20;1.10;;;9.20;55.30;;;;;;4922983;29;20076;-89
2021/11/15 14:11:04;;;;;;;3.03;1.45;;;9.20;54.20;;;;;;4922514;29;20040;-86
2021/11/15 14:13:30;;;;;;;2.22;1.70;;;9.10;53.40;;;;;;4921892;29;20036;-85